London, United Kingdom

8:04 AM GMT on December 08, 2016 (GMT +0000)
Heathrow | | Change Station

Elev 79 ft 51.48 °N, 0.46 °W | Updated 14 minutes ago

Scattered Clouds
Scattered Clouds
52 °F
Feels Like 52 °F
N
8
Wind Variable Wind from SW

Today
High -- | Low -- °F
--% Chance of Precip.
Yesterday
High -- | Low -- °F
Precip. -- in
Pressure 30.27 in
Visibility 5.6 miles
Clouds Few 1200 ft
Scattered Clouds 2500 ft
Dew Point 50 °F
Humidity 94%
Rainfall 0.00 in
Snow Depth Not available.
7:54 AM 3:53 PM
First Quarter, 61% visible
METAR EGLL 080750Z AUTO 22007KT 180V250 9000 FEW012 SCT025 11/10 Q1025 TEMPO BKN012
Pressure 30.27 in
Visibility 5.6 miles
Clouds Few 1200 ft
Scattered Clouds 2500 ft
Dew Point 50 °F
Humidity 94%
Rainfall 0.00 in
Snow Depth Not available.
7:54 AM 3:53 PM
First Quarter, 61% visible
METAR EGLL 080750Z AUTO 22007KT 180V250 9000 FEW012 SCT025 11/10 Q1025 TEMPO BKN012

10-Day Weather Forecast

×

Almanac

Astronomy

Dec. 08, 2016 Rise Set
Actual Time
Civil Twilight
Nautical Twilight
Astronomical Twilight
Moon
Length of Visible Light
Length of Day
Tomorrow will be .
, % of the Moon is Illuminated

Today's Extremes

Country Highs Country Lows

Community

WunderPhotos

Upload Photos

1,956,259 photos uploaded!

WunderBlog® & News

Nearby

Air Quality

  Air Quality AQ Index Pollutant
Not available.

Snow Depth

Station Depth Elevation

Earthquake Activity

City Distance Mag. Time & Date
Minimum magnitude displayed is 2.5.

Coastal Water Temperatures

Place Temperature

Stations

Nearby Weather Stations

Station Location Temp. Windchill Dew Point Humidity Wind Precip. Elev Updated Type